sensor_id;sensor_type;location;lat;lon;timestamp;P1;durP1;ratioP1;P2;durP2;ratioP2
30133;SDS011;16946;49.984;10.672;2022-08-25T00:00:24;12.20;;;11.00;;
30133;SDS011;16946;49.984;10.672;2022-08-25T00:00:55;12.18;;;10.98;;
30133;SDS011;16946;49.984;10.672;2022-08-25T00:01:26;12.37;;;11.10;;
30133;SDS011;16946;49.984;10.672;2022-08-25T00:02:01;12.43;;;11.23;;
30133;SDS011;16946;49.984;10.672;2022-08-25T00:02:35;11.57;;;10.40;;
30133;SDS011;16946;49.984;10.672;2022-08-25T00:03:06;13.02;;;11.65;;
30133;SDS011;16946;49.984;10.672;2022-08-25T00:03:37;12.87;;;11.50;;
30133;SDS011;16946;49.984;10.672;2022-08-25T00:04:09;11.67;;;10.57;;
30133;SDS011;16946;49.984;10.672;2022-08-25T00:04:41;11.82;;;10.63;;
30133;SDS011;16946;49.984;10.672;2022-08-25T00:05:12;11.53;;;10.37;;
30133;SDS011;16946;49.984;10.672;2022-08-25T00:05:42;13.07;;;10.93;;
30133;SDS011;16946;49.984;10.672;2022-08-25T00:06:13;12.37;;;11.17;;
30133;SDS011;16946;49.984;10.672;2022-08-25T00:06:44;12.00;;;10.90;;
30133;SDS011;16946;49.984;10.672;2022-08-25T00:07:16;12.30;;;10.90;;
30133;SDS011;16946;49.984;10.672;2022-08-25T00:07:47;12.37;;;11.17;;
30133;SDS011;16946;49.984;10.672;2022-08-25T00:08:17;11.87;;;10.77;;
30133;SDS011;16946;49.984;10.672;2022-08-25T00:08:48;12.77;;;11.67;;
30133;SDS011;16946;49.984;10.672;2022-08-25T00:09:20;13.00;;;11.77;;
30133;SDS011;16946;49.984;10.672;2022-08-25T00:09:52;12.05;;;10.95;;
30133;SDS011;16946;49.984;10.672;2022-08-25T00:10:23;12.00;;;10.90;;
30133;SDS011;16946;49.984;10.672;2022-08-25T00:10:54;12.80;;;11.50;;
30133;SDS011;16946;49.984;10.672;2022-08-25T00:11:26;13.17;;;11.87;;
30133;SDS011;16946;49.984;10.672;2022-08-25T00:11:59;11.68;;;10.57;;
30133;SDS011;16946;49.984;10.672;2022-08-25T00:12:30;14.07;;;11.55;;
30133;SDS011;16946;49.984;10.672;2022-08-25T00:13:01;13.80;;;12.40;;
30133;SDS011;16946;49.984;10.672;2022-08-25T00:13:32;13.38;;;11.90;;
30133;SDS011;16946;49.984;10.672;2022-08-25T00:14:05;15.00;;;13.50;;
30133;SDS011;16946;49.984;10.672;2022-08-25T00:14:38;17.98;;;16.10;;
30133;SDS011;16946;49.984;10.672;2022-08-25T00:15:09;13.43;;;12.23;;
30133;SDS011;16946;49.984;10.672;2022-08-25T00:15:40;13.20;;;11.80;;
30133;SDS011;16946;49.984;10.672;2022-08-25T00:16:11;13.37;;;12.07;;
30133;SDS011;16946;49.984;10.672;2022-08-25T00:16:43;13.85;;;10.95;;
30133;SDS011;16946;49.984;10.672;2022-08-25T00:17:14;12.80;;;11.60;;
30133;SDS011;16946;49.984;10.672;2022-08-25T00:17:45;12.47;;;11.37;;
30133;SDS011;16946;49.984;10.672;2022-08-25T00:18:15;12.90;;;11.57;;
30133;SDS011;16946;49.984;10.672;2022-08-25T00:18:48;12.07;;;10.87;;
30133;SDS011;16946;49.984;10.672;2022-08-25T00:19:23;12.27;;;10.95;;
30133;SDS011;16946;49.984;10.672;2022-08-25T00:19:56;12.45;;;10.82;;
30133;SDS011;16946;49.984;10.672;2022-08-25T00:20:26;11.63;;;10.43;;
30133;SDS011;16946;49.984;10.672;2022-08-25T00:20:58;11.00;;;10.02;;
30133;SDS011;16946;49.984;10.672;2022-08-25T00:21:28;11.67;;;10.50;;
30133;SDS011;16946;49.984;10.672;2022-08-25T00:22:01;10.60;;;9.60;;
30133;SDS011;16946;49.984;10.672;2022-08-25T00:22:33;12.30;;;10.52;;
30133;SDS011;16946;49.984;10.672;2022-08-25T00:23:04;11.83;;;10.70;;
30133;SDS011;16946;49.984;10.672;2022-08-25T00:23:34;11.00;;;9.93;;
30133;SDS011;16946;49.984;10.672;2022-08-25T00:24:05;10.60;;;9.60;;
30133;SDS011;16946;49.984;10.672;2022-08-25T00:24:37;10.77;;;9.80;;
30133;SDS011;16946;49.984;10.672;2022-08-25T00:25:08;11.23;;;9.97;;
30133;SDS011;16946;49.984;10.672;2022-08-25T00:25:39;11.60;;;10.07;;
30133;SDS011;16946;49.984;10.672;2022-08-25T00:26:10;11.57;;;10.50;;
30133;SDS011;16946;49.984;10.672;2022-08-25T00:26:42;10.82;;;9.75;;
30133;SDS011;16946;49.984;10.672;2022-08-25T00:27:14;11.63;;;10.13;;
30133;SDS011;16946;49.984;10.672;2022-08-25T00:27:45;11.47;;;10.37;;
30133;SDS011;16946;49.984;10.672;2022-08-25T00:28:17;10.68;;;9.75;;
30133;SDS011;16946;49.984;10.672;2022-08-25T00:28:47;11.50;;;10.40;;
30133;SDS011;16946;49.984;10.672;2022-08-25T00:29:18;11.60;;;10.40;;
30133;SDS011;16946;49.984;10.672;2022-08-25T00:29:49;11.00;;;9.82;;
30133;SDS011;16946;49.984;10.672;2022-08-25T00:30:20;10.80;;;9.77;;
30133;SDS011;16946;49.984;10.672;2022-08-25T00:30:51;11.00;;;9.93;;
30133;SDS011;16946;49.984;10.672;2022-08-25T00:31:21;11.43;;;10.33;;
30133;SDS011;16946;49.984;10.672;2022-08-25T00:31:53;10.77;;;9.68;;
30133;SDS011;16946;49.984;10.672;2022-08-25T00:32:24;11.38;;;10.38;;
30133;SDS011;16946;49.984;10.672;2022-08-25T00:32:55;11.90;;;10.48;;
30133;SDS011;16946;49.984;10.672;2022-08-25T00:33:26;12.57;;;11.33;;
30133;SDS011;16946;49.984;10.672;2022-08-25T00:34:00;11.13;;;10.02;;
30133;SDS011;16946;49.984;10.672;2022-08-25T00:34:32;11.60;;;10.50;;
30133;SDS011;16946;49.984;10.672;2022-08-25T00:35:04;10.45;;;9.43;;
30133;SDS011;16946;49.984;10.672;2022-08-25T00:35:35;11.48;;;10.30;;
30133;SDS011;16946;49.984;10.672;2022-08-25T00:36:05;11.87;;;10.77;;
30133;SDS011;16946;49.984;10.672;2022-08-25T00:36:36;10.83;;;9.90;;
30133;SDS011;16946;49.984;10.672;2022-08-25T00:37:08;11.45;;;10.35;;
30133;SDS011;16946;49.984;10.672;2022-08-25T00:37:38;12.80;;;11.60;;
30133;SDS011;16946;49.984;10.672;2022-08-25T00:38:10;14.33;;;12.83;;
30133;SDS011;16946;49.984;10.672;2022-08-25T00:38:42;17.23;;;14.30;;
30133;SDS011;16946;49.984;10.672;2022-08-25T00:39:14;13.70;;;11.40;;
30133;SDS011;16946;49.984;10.672;2022-08-25T00:39:45;11.53;;;10.40;;
30133;SDS011;16946;49.984;10.672;2022-08-25T00:40:15;12.13;;;10.87;;
30133;SDS011;16946;49.984;10.672;2022-08-25T00:40:46;13.53;;;10.83;;
30133;SDS011;16946;49.984;10.672;2022-08-25T00:41:35;11.02;;;9.98;;
30133;SDS011;16946;49.984;10.672;2022-08-25T00:42:07;12.20;;;11.00;;
30133;SDS011;16946;49.984;10.672;2022-08-25T00:42:38;11.80;;;10.38;;
30133;SDS011;16946;49.984;10.672;2022-08-25T00:43:10;11.38;;;10.27;;
30133;SDS011;16946;49.984;10.672;2022-08-25T00:43:43;11.13;;;10.07;;
30133;SDS011;16946;49.984;10.672;2022-08-25T00:44:17;12.00;;;10.90;;
30133;SDS011;16946;49.984;10.672;2022-08-25T00:44:48;11.30;;;10.30;;
30133;SDS011;16946;49.984;10.672;2022-08-25T00:45:19;11.77;;;10.63;;
30133;SDS011;16946;49.984;10.672;2022-08-25T00:45:50;11.05;;;10.05;;
30133;SDS011;16946;49.984;10.672;2022-08-25T00:46:22;11.17;;;10.13;;
30133;SDS011;16946;49.984;10.672;2022-08-25T00:46:59;10.93;;;9.93;;
30133;SDS011;16946;49.984;10.672;2022-08-25T00:47:31;11.40;;;10.25;;
30133;SDS011;16946;49.984;10.672;2022-08-25T00:48:02;11.70;;;10.43;;
30133;SDS011;16946;49.984;10.672;2022-08-25T00:48:33;13.88;;;9.77;;
30133;SDS011;16946;49.984;10.672;2022-08-25T00:49:56;11.52;;;9.77;;
30133;SDS011;16946;49.984;10.672;2022-08-25T00:50:29;10.75;;;9.80;;
30133;SDS011;16946;49.984;10.672;2022-08-25T00:51:01;10.82;;;9.82;;
30133;SDS011;16946;49.984;10.672;2022-08-25T00:51:35;11.35;;;10.35;;
30133;SDS011;16946;49.984;10.672;2022-08-25T00:52:49;11.27;;;10.18;;
30133;SDS011;16946;49.984;10.672;2022-08-25T00:53:22;11.70;;;10.60;;
30133;SDS011;16946;49.984;10.672;2022-08-25T00:53:53;11.17;;;10.07;;
30133;SDS011;16946;49.984;10.672;2022-08-25T00:54:26;11.57;;;10.27;;
30133;SDS011;16946;49.984;10.672;2022-08-25T00:55:02;10.85;;;9.95;;
30133;SDS011;16946;49.984;10.672;2022-08-25T00:55:35;11.50;;;10.32;;
30133;SDS011;16946;49.984;10.672;2022-08-25T00:56:08;11.70;;;10.60;;
30133;SDS011;16946;49.984;10.672;2022-08-25T00:56:40;11.65;;;10.50;;
30133;SDS011;16946;49.984;10.672;2022-08-25T00:57:13;11.35;;;9.75;;
30133;SDS011;16946;49.984;10.672;2022-08-25T00:57:48;11.90;;;10.80;;
30133;SDS011;16946;49.984;10.672;2022-08-25T00:58:30;11.43;;;10.32;;
30133;SDS011;16946;49.984;10.672;2022-08-25T00:59:03;11.43;;;10.38;;
30133;SDS011;16946;49.984;10.672;2022-08-25T00:59:34;11.77;;;10.68;;
30133;SDS011;16946;49.984;10.672;2022-08-25T01:00:07;10.90;;;10.00;;
30133;SDS011;16946;49.984;10.672;2022-08-25T01:00:51;11.68;;;10.57;;
30133;SDS011;16946;49.984;10.672;2022-08-25T01:01:24;11.50;;;10.35;;
30133;SDS011;16946;49.984;10.672;2022-08-25T01:01:55;11.45;;;10.25;;
30133;SDS011;16946;49.984;10.672;2022-08-25T01:02:27;11.05;;;10.05;;
30133;SDS011;16946;49.984;10.672;2022-08-25T01:02:58;11.77;;;10.67;;
30133;SDS011;16946;49.984;10.672;2022-08-25T01:03:31;11.95;;;10.38;;
30133;SDS011;16946;49.984;10.672;2022-08-25T01:04:04;11.50;;;10.38;;
30133;SDS011;16946;49.984;10.672;2022-08-25T01:04:36;11.07;;;10.07;;
30133;SDS011;16946;49.984;10.672;2022-08-25T01:05:07;11.90;;;10.73;;
30133;SDS011;16946;49.984;10.672;2022-08-25T01:05:39;11.25;;;10.18;;
30133;SDS011;16946;49.984;10.672;2022-08-25T01:06:12;10.88;;;9.88;;
30133;SDS011;16946;49.984;10.672;2022-08-25T01:06:43;11.50;;;10.50;;
30133;SDS011;16946;49.984;10.672;2022-08-25T01:07:14;12.27;;;10.98;;
30133;SDS011;16946;49.984;10.672;2022-08-25T01:07:47;10.70;;;9.68;;
30133;SDS011;16946;49.984;10.672;2022-08-25T01:08:19;12.07;;;10.88;;
30133;SDS011;16946;49.984;10.672;2022-08-25T01:08:56;11.98;;;10.98;;
30133;SDS011;16946;49.984;10.672;2022-08-25T01:09:27;11.88;;;10.77;;
30133;SDS011;16946;49.984;10.672;2022-08-25T01:10:01;10.98;;;9.93;;
30133;SDS011;16946;49.984;10.672;2022-08-25T01:10:34;13.18;;;11.07;;
30133;SDS011;16946;49.984;10.672;2022-08-25T01:11:06;11.75;;;10.60;;
30133;SDS011;16946;49.984;10.672;2022-08-25T01:11:40;11.77;;;10.77;;
30133;SDS011;16946;49.984;10.672;2022-08-25T01:12:13;11.95;;;10.77;;
30133;SDS011;16946;49.984;10.672;2022-08-25T01:12:44;11.77;;;10.57;;
30133;SDS011;16946;49.984;10.672;2022-08-25T01:13:17;11.60;;;10.50;;
30133;SDS011;16946;49.984;10.672;2022-08-25T01:13:53;11.85;;;10.75;;
30133;SDS011;16946;49.984;10.672;2022-08-25T01:14:26;11.05;;;10.05;;
30133;SDS011;16946;49.984;10.672;2022-08-25T01:14:57;11.88;;;10.73;;
30133;SDS011;16946;49.984;10.672;2022-08-25T01:15:29;13.02;;;11.05;;
30133;SDS011;16946;49.984;10.672;2022-08-25T01:16:01;11.68;;;10.68;;
30133;SDS011;16946;49.984;10.672;2022-08-25T01:16:33;11.90;;;10.77;;
30133;SDS011;16946;49.984;10.672;2022-08-25T01:17:04;11.30;;;10.30;;
30133;SDS011;16946;49.984;10.672;2022-08-25T01:17:44;11.80;;;10.70;;
30133;SDS011;16946;49.984;10.672;2022-08-25T01:18:18;11.60;;;10.43;;
30133;SDS011;16946;49.984;10.672;2022-08-25T01:18:53;11.43;;;10.38;;
30133;SDS011;16946;49.984;10.672;2022-08-25T01:19:26;10.95;;;9.80;;
30133;SDS011;16946;49.984;10.672;2022-08-25T01:19:58;11.75;;;10.60;;
30133;SDS011;16946;49.984;10.672;2022-08-25T01:20:29;11.50;;;10.30;;
30133;SDS011;16946;49.984;10.672;2022-08-25T01:21:01;11.70;;;10.60;;
30133;SDS011;16946;49.984;10.672;2022-08-25T01:21:36;11.60;;;10.50;;
30133;SDS011;16946;49.984;10.672;2022-08-25T01:22:12;11.15;;;10.15;;
30133;SDS011;16946;49.984;10.672;2022-08-25T01:22:42;12.00;;;10.90;;
30133;SDS011;16946;49.984;10.672;2022-08-25T01:23:13;12.17;;;11.00;;
30133;SDS011;16946;49.984;10.672;2022-08-25T01:23:44;11.63;;;10.63;;
30133;SDS011;16946;49.984;10.672;2022-08-25T01:24:40;11.80;;;10.57;;
30133;SDS011;16946;49.984;10.672;2022-08-25T01:26:15;11.85;;;10.85;;
30133;SDS011;16946;49.984;10.672;2022-08-25T01:26:50;12.23;;;10.93;;
30133;SDS011;16946;49.984;10.672;2022-08-25T01:27:20;10.97;;;9.93;;
30133;SDS011;16946;49.984;10.672;2022-08-25T01:27:51;11.73;;;10.63;;
30133;SDS011;16946;49.984;10.672;2022-08-25T01:28:22;11.70;;;10.60;;
30133;SDS011;16946;49.984;10.672;2022-08-25T01:28:52;11.77;;;10.73;;
30133;SDS011;16946;49.984;10.672;2022-08-25T01:29:42;11.93;;;10.77;;
30133;SDS011;16946;49.984;10.672;2022-08-25T01:30:13;11.70;;;10.63;;
30133;SDS011;16946;49.984;10.672;2022-08-25T01:30:43;12.53;;;11.33;;
30133;SDS011;16946;49.984;10.672;2022-08-25T01:31:14;12.43;;;11.27;;
30133;SDS011;16946;49.984;10.672;2022-08-25T01:31:45;12.07;;;10.97;;
30133;SDS011;16946;49.984;10.672;2022-08-25T01:32:19;12.32;;;11.13;;
30133;SDS011;16946;49.984;10.672;2022-08-25T01:32:50;12.00;;;10.77;;
30133;SDS011;16946;49.984;10.672;2022-08-25T01:33:20;11.93;;;10.83;;
30133;SDS011;16946;49.984;10.672;2022-08-25T01:33:51;11.83;;;10.63;;
30133;SDS011;16946;49.984;10.672;2022-08-25T01:34:23;12.13;;;10.97;;
30133;SDS011;16946;49.984;10.672;2022-08-25T01:34:55;11.82;;;10.80;;
30133;SDS011;16946;49.984;10.672;2022-08-25T01:35:26;12.03;;;10.83;;
30133;SDS011;16946;49.984;10.672;2022-08-25T01:35:56;12.27;;;11.00;;
30133;SDS011;16946;49.984;10.672;2022-08-25T01:36:27;13.30;;;11.97;;
30133;SDS011;16946;49.984;10.672;2022-08-25T01:36:59;12.93;;;11.73;;
30133;SDS011;16946;49.984;10.672;2022-08-25T01:37:32;11.55;;;10.43;;
30133;SDS011;16946;49.984;10.672;2022-08-25T01:38:04;12.40;;;11.23;;
30133;SDS011;16946;49.984;10.672;2022-08-25T01:38:36;12.05;;;11.00;;
30133;SDS011;16946;49.984;10.672;2022-08-25T01:39:07;12.23;;;11.03;;
30133;SDS011;16946;49.984;10.672;2022-08-25T01:39:37;12.57;;;11.43;;
30133;SDS011;16946;49.984;10.672;2022-08-25T01:40:08;12.13;;;10.93;;
30133;SDS011;16946;49.984;10.672;2022-08-25T01:40:40;12.75;;;11.50;;
30133;SDS011;16946;49.984;10.672;2022-08-25T01:41:11;11.95;;;10.52;;
30133;SDS011;16946;49.984;10.672;2022-08-25T01:41:54;11.27;;;10.18;;
30133;SDS011;16946;49.984;10.672;2022-08-25T01:42:41;12.00;;;11.00;;
30133;SDS011;16946;49.984;10.672;2022-08-25T01:43:35;13.50;;;11.20;;
30133;SDS011;16946;49.984;10.672;2022-08-25T01:44:07;12.65;;;11.48;;
30133;SDS011;16946;49.984;10.672;2022-08-25T01:44:38;12.93;;;11.67;;
30133;SDS011;16946;49.984;10.672;2022-08-25T01:45:11;11.38;;;10.27;;
30133;SDS011;16946;49.984;10.672;2022-08-25T01:45:42;12.43;;;11.23;;
30133;SDS011;16946;49.984;10.672;2022-08-25T01:46:15;12.23;;;11.13;;
30133;SDS011;16946;49.984;10.672;2022-08-25T01:46:45;13.30;;;11.67;;
30133;SDS011;16946;49.984;10.672;2022-08-25T01:47:16;12.23;;;11.07;;
30133;SDS011;16946;49.984;10.672;2022-08-25T01:47:46;12.37;;;11.07;;
30133;SDS011;16946;49.984;10.672;2022-08-25T01:48:17;11.60;;;10.50;;
30133;SDS011;16946;49.984;10.672;2022-08-25T01:48:48;13.07;;;10.75;;
30133;SDS011;16946;49.984;10.672;2022-08-25T01:49:19;12.63;;;11.53;;
30133;SDS011;16946;49.984;10.672;2022-08-25T01:49:50;13.23;;;11.93;;
30133;SDS011;16946;49.984;10.672;2022-08-25T01:50:20;12.27;;;11.27;;
30133;SDS011;16946;49.984;10.672;2022-08-25T01:50:51;12.60;;;11.47;;
30133;SDS011;16946;49.984;10.672;2022-08-25T01:51:22;12.33;;;11.13;;
30133;SDS011;16946;49.984;10.672;2022-08-25T01:51:56;13.00;;;11.88;;
30133;SDS011;16946;49.984;10.672;2022-08-25T01:53:22;13.35;;;11.95;;
30133;SDS011;16946;49.984;10.672;2022-08-25T01:53:53;12.82;;;11.63;;
30133;SDS011;16946;49.984;10.672;2022-08-25T01:54:23;12.90;;;11.70;;
30133;SDS011;16946;49.984;10.672;2022-08-25T01:54:54;13.10;;;11.90;;
30133;SDS011;16946;49.984;10.672;2022-08-25T01:55:25;12.40;;;11.30;;
30133;SDS011;16946;49.984;10.672;2022-08-25T01:55:55;13.30;;;12.10;;
30133;SDS011;16946;49.984;10.672;2022-08-25T01:56:31;13.10;;;11.95;;
30133;SDS011;16946;49.984;10.672;2022-08-25T01:57:01;12.90;;;11.70;;
30133;SDS011;16946;49.984;10.672;2022-08-25T01:57:33;12.82;;;11.52;;
30133;SDS011;16946;49.984;10.672;2022-08-25T01:58:03;12.83;;;11.53;;
30133;SDS011;16946;49.984;10.672;2022-08-25T01:58:35;13.77;;;12.47;;
30133;SDS011;16946;49.984;10.672;2022-08-25T01:59:06;14.05;;;12.43;;
30133;SDS011;16946;49.984;10.672;2022-08-25T01:59:37;15.13;;;13.73;;
30133;SDS011;16946;49.984;10.672;2022-08-25T02:00:09;14.60;;;13.20;;
30133;SDS011;16946;49.984;10.672;2022-08-25T02:00:49;13.60;;;12.27;;
30133;SDS011;16946;49.984;10.672;2022-08-25T02:01:23;13.45;;;12.23;;
30133;SDS011;16946;49.984;10.672;2022-08-25T02:01:55;14.48;;;12.98;;
30133;SDS011;16946;49.984;10.672;2022-08-25T02:02:25;13.90;;;12.53;;
30133;SDS011;16946;49.984;10.672;2022-08-25T02:02:56;13.77;;;12.38;;
30133;SDS011;16946;49.984;10.672;2022-08-25T02:03:27;14.10;;;12.70;;
30133;SDS011;16946;49.984;10.672;2022-08-25T02:03:58;13.80;;;12.55;;
30133;SDS011;16946;49.984;10.672;2022-08-25T02:04:29;14.70;;;12.80;;
30133;SDS011;16946;49.984;10.672;2022-08-25T02:05:01;13.98;;;12.57;;
30133;SDS011;16946;49.984;10.672;2022-08-25T02:05:32;13.30;;;12.03;;
30133;SDS011;16946;49.984;10.672;2022-08-25T02:06:03;13.77;;;12.57;;
30133;SDS011;16946;49.984;10.672;2022-08-25T02:06:34;14.15;;;12.85;;
30133;SDS011;16946;49.984;10.672;2022-08-25T02:07:05;13.80;;;12.50;;
30133;SDS011;16946;49.984;10.672;2022-08-25T02:07:37;12.43;;;11.23;;
30133;SDS011;16946;49.984;10.672;2022-08-25T02:08:07;13.50;;;12.30;;
30133;SDS011;16946;49.984;10.672;2022-08-25T02:08:38;13.73;;;12.23;;
30133;SDS011;16946;49.984;10.672;2022-08-25T02:09:11;13.90;;;12.70;;
30133;SDS011;16946;49.984;10.672;2022-08-25T02:09:43;13.57;;;12.23;;
30133;SDS011;16946;49.984;10.672;2022-08-25T02:10:13;14.43;;;13.07;;
30133;SDS011;16946;49.984;10.672;2022-08-25T02:10:44;14.27;;;12.90;;
30133;SDS011;16946;49.984;10.672;2022-08-25T02:11:15;14.27;;;12.85;;
30133;SDS011;16946;49.984;10.672;2022-08-25T02:11:46;14.50;;;13.10;;
30133;SDS011;16946;49.984;10.672;2022-08-25T02:12:16;15.00;;;13.60;;
30133;SDS011;16946;49.984;10.672;2022-08-25T02:12:47;15.43;;;13.93;;
30133;SDS011;16946;49.984;10.672;2022-08-25T02:13:21;14.90;;;13.45;;
30133;SDS011;16946;49.984;10.672;2022-08-25T02:13:52;15.50;;;14.10;;
30133;SDS011;16946;49.984;10.672;2022-08-25T02:14:23;15.18;;;13.57;;
30133;SDS011;16946;49.984;10.672;2022-08-25T02:14:54;14.43;;;13.00;;
30133;SDS011;16946;49.984;10.672;2022-08-25T02:15:24;15.53;;;14.10;;
30133;SDS011;16946;49.984;10.672;2022-08-25T02:15:55;15.07;;;13.47;;
30133;SDS011;16946;49.984;10.672;2022-08-25T02:16:29;14.23;;;12.82;;
30133;SDS011;16946;49.984;10.672;2022-08-25T02:17:02;14.80;;;13.30;;
30133;SDS011;16946;49.984;10.672;2022-08-25T02:17:34;15.13;;;13.52;;
30133;SDS011;16946;49.984;10.672;2022-08-25T02:18:05;15.48;;;13.95;;
30133;SDS011;16946;49.984;10.672;2022-08-25T02:18:36;15.77;;;14.27;;
30133;SDS011;16946;49.984;10.672;2022-08-25T02:19:08;14.80;;;13.40;;
30133;SDS011;16946;49.984;10.672;2022-08-25T02:19:40;15.90;;;14.32;;
30133;SDS011;16946;49.984;10.672;2022-08-25T02:20:11;15.60;;;14.00;;
30133;SDS011;16946;49.984;10.672;2022-08-25T02:20:41;14.93;;;13.47;;
30133;SDS011;16946;49.984;10.672;2022-08-25T02:21:13;14.83;;;13.37;;
30133;SDS011;16946;49.984;10.672;2022-08-25T02:21:44;14.95;;;13.45;;
30133;SDS011;16946;49.984;10.672;2022-08-25T02:22:14;15.77;;;14.17;;
30133;SDS011;16946;49.984;10.672;2022-08-25T02:22:46;15.02;;;13.52;;
30133;SDS011;16946;49.984;10.672;2022-08-25T02:23:16;15.03;;;13.63;;
30133;SDS011;16946;49.984;10.672;2022-08-25T02:23:47;14.80;;;13.33;;
30133;SDS011;16946;49.984;10.672;2022-08-25T02:24:18;14.40;;;12.90;;
30133;SDS011;16946;49.984;10.672;2022-08-25T02:24:49;15.53;;;14.13;;
30133;SDS011;16946;49.984;10.672;2022-08-25T02:25:19;15.57;;;14.07;;
30133;SDS011;16946;49.984;10.672;2022-08-25T02:25:50;14.93;;;13.47;;
30133;SDS011;16946;49.984;10.672;2022-08-25T02:26:20;15.47;;;13.93;;
30133;SDS011;16946;49.984;10.672;2022-08-25T02:26:51;15.63;;;14.13;;
30133;SDS011;16946;49.984;10.672;2022-08-25T02:27:22;16.17;;;14.53;;
30133;SDS011;16946;49.984;10.672;2022-08-25T02:27:53;15.38;;;13.88;;
30133;SDS011;16946;49.984;10.672;2022-08-25T02:28:24;15.40;;;13.90;;
30133;SDS011;16946;49.984;10.672;2022-08-25T02:28:54;16.03;;;14.43;;
30133;SDS011;16946;49.984;10.672;2022-08-25T02:29:25;16.47;;;14.97;;
30133;SDS011;16946;49.984;10.672;2022-08-25T02:29:55;16.87;;;15.27;;
30133;SDS011;16946;49.984;10.672;2022-08-25T02:30:26;15.37;;;13.83;;
30133;SDS011;16946;49.984;10.672;2022-08-25T02:30:57;16.10;;;14.50;;
30133;SDS011;16946;49.984;10.672;2022-08-25T02:31:27;15.37;;;13.87;;
30133;SDS011;16946;49.984;10.672;2022-08-25T02:31:58;15.10;;;13.57;;
30133;SDS011;16946;49.984;10.672;2022-08-25T02:32:29;15.97;;;14.43;;
30133;SDS011;16946;49.984;10.672;2022-08-25T02:33:00;15.90;;;14.30;;
30133;SDS011;16946;49.984;10.672;2022-08-25T02:33:31;14.82;;;13.45;;
30133;SDS011;16946;49.984;10.672;2022-08-25T02:34:02;15.63;;;14.13;;
30133;SDS011;16946;49.984;10.672;2022-08-25T02:34:33;16.02;;;14.50;;
30133;SDS011;16946;49.984;10.672;2022-08-25T02:35:04;15.63;;;14.07;;
30133;SDS011;16946;49.984;10.672;2022-08-25T02:35:36;16.88;;;15.30;;
30133;SDS011;16946;49.984;10.672;2022-08-25T02:36:07;15.67;;;14.10;;
30133;SDS011;16946;49.984;10.672;2022-08-25T02:36:38;16.13;;;14.57;;
30133;SDS011;16946;49.984;10.672;2022-08-25T02:37:09;16.87;;;15.27;;
30133;SDS011;16946;49.984;10.672;2022-08-25T02:37:39;16.70;;;14.97;;
30133;SDS011;16946;49.984;10.672;2022-08-25T02:38:10;15.37;;;13.97;;
30133;SDS011;16946;49.984;10.672;2022-08-25T02:38:41;16.40;;;14.80;;
30133;SDS011;16946;49.984;10.672;2022-08-25T02:39:11;16.88;;;15.07;;
30133;SDS011;16946;49.984;10.672;2022-08-25T02:39:42;17.03;;;15.43;;
30133;SDS011;16946;49.984;10.672;2022-08-25T02:40:13;16.37;;;14.80;;
30133;SDS011;16946;49.984;10.672;2022-08-25T02:40:43;17.20;;;15.50;;
30133;SDS011;16946;49.984;10.672;2022-08-25T02:41:15;18.10;;;16.30;;
30133;SDS011;16946;49.984;10.672;2022-08-25T02:41:49;16.95;;;15.35;;
30133;SDS011;16946;49.984;10.672;2022-08-25T02:42:20;18.02;;;16.23;;
30133;SDS011;16946;49.984;10.672;2022-08-25T02:42:51;18.27;;;16.37;;
30133;SDS011;16946;49.984;10.672;2022-08-25T02:43:23;17.20;;;15.43;;
30133;SDS011;16946;49.984;10.672;2022-08-25T02:43:54;18.10;;;16.30;;
30133;SDS011;16946;49.984;10.672;2022-08-25T02:44:25;17.53;;;15.83;;
30133;SDS011;16946;49.984;10.672;2022-08-25T02:44:55;17.53;;;15.83;;
30133;SDS011;16946;49.984;10.672;2022-08-25T02:45:26;17.27;;;15.57;;
30133;SDS011;16946;49.984;10.672;2022-08-25T02:45:57;17.67;;;15.88;;
30133;SDS011;16946;49.984;10.672;2022-08-25T02:46:28;17.33;;;15.63;;
30133;SDS011;16946;49.984;10.672;2022-08-25T02:46:59;16.55;;;15.05;;
30133;SDS011;16946;49.984;10.672;2022-08-25T02:47:30;16.53;;;14.83;;
30133;SDS011;16946;49.984;10.672;2022-08-25T02:48:01;16.63;;;14.97;;
30133;SDS011;16946;49.984;10.672;2022-08-25T02:48:32;17.17;;;15.52;;
30133;SDS011;16946;49.984;10.672;2022-08-25T02:49:03;16.33;;;14.73;;
30133;SDS011;16946;49.984;10.672;2022-08-25T02:49:34;16.60;;;15.00;;
30133;SDS011;16946;49.984;10.672;2022-08-25T02:50:05;16.57;;;14.87;;
30133;SDS011;16946;49.984;10.672;2022-08-25T02:50:37;16.77;;;15.18;;
30133;SDS011;16946;49.984;10.672;2022-08-25T02:51:08;16.23;;;14.70;;
30133;SDS011;16946;49.984;10.672;2022-08-25T02:51:39;16.20;;;14.70;;
30133;SDS011;16946;49.984;10.672;2022-08-25T02:52:09;16.90;;;15.23;;
30133;SDS011;16946;49.984;10.672;2022-08-25T02:52:40;17.10;;;15.47;;
30133;SDS011;16946;49.984;10.672;2022-08-25T02:53:10;16.70;;;15.17;;
30133;SDS011;16946;49.984;10.672;2022-08-25T02:53:41;18.07;;;16.30;;
30133;SDS011;16946;49.984;10.672;2022-08-25T02:54:14;16.85;;;15.25;;
30133;SDS011;16946;49.984;10.672;2022-08-25T02:54:45;16.33;;;14.70;;
30133;SDS011;16946;49.984;10.672;2022-08-25T02:55:16;16.27;;;14.77;;
30133;SDS011;16946;49.984;10.672;2022-08-25T02:55:47;17.10;;;14.93;;
30133;SDS011;16946;49.984;10.672;2022-08-25T02:56:18;17.73;;;16.13;;
30133;SDS011;16946;49.984;10.672;2022-08-25T02:56:48;16.70;;;15.20;;
30133;SDS011;16946;49.984;10.672;2022-08-25T02:57:19;16.03;;;14.43;;
30133;SDS011;16946;49.984;10.672;2022-08-25T02:57:50;17.70;;;15.90;;
30133;SDS011;16946;49.984;10.672;2022-08-25T02:58:20;17.40;;;15.80;;
30133;SDS011;16946;49.984;10.672;2022-08-25T02:58:51;18.03;;;16.33;;
30133;SDS011;16946;49.984;10.672;2022-08-25T02:59:22;16.88;;;15.27;;
30133;SDS011;16946;49.984;10.672;2022-08-25T02:59:53;17.50;;;15.80;;
30133;SDS011;16946;49.984;10.672;2022-08-25T03:00:23;18.97;;;17.07;;
30133;SDS011;16946;49.984;10.672;2022-08-25T03:00:54;17.47;;;15.77;;
30133;SDS011;16946;49.984;10.672;2022-08-25T03:01:25;18.58;;;16.25;;
30133;SDS011;16946;49.984;10.672;2022-08-25T03:01:56;17.30;;;15.60;;
30133;SDS011;16946;49.984;10.672;2022-08-25T03:02:26;17.97;;;16.10;;
30133;SDS011;16946;49.984;10.672;2022-08-25T03:02:57;17.50;;;15.90;;
30133;SDS011;16946;49.984;10.672;2022-08-25T03:03:28;17.77;;;16.00;;
30133;SDS011;16946;49.984;10.672;2022-08-25T03:03:59;18.13;;;16.23;;
30133;SDS011;16946;49.984;10.672;2022-08-25T03:04:31;18.23;;;16.40;;
30133;SDS011;16946;49.984;10.672;2022-08-25T03:05:02;17.47;;;15.77;;
30133;SDS011;16946;49.984;10.672;2022-08-25T03:05:33;17.33;;;15.63;;
30133;SDS011;16946;49.984;10.672;2022-08-25T03:06:05;18.33;;;16.57;;
30133;SDS011;16946;49.984;10.672;2022-08-25T03:06:39;18.13;;;16.38;;
30133;SDS011;16946;49.984;10.672;2022-08-25T03:07:10;18.20;;;16.40;;
30133;SDS011;16946;49.984;10.672;2022-08-25T03:07:41;17.45;;;15.75;;
30133;SDS011;16946;49.984;10.672;2022-08-25T03:08:12;17.27;;;15.57;;